MSC Ludovica — HPAF — position and weather

sailwx.info

Track history (hours):
 
Tides and Currents Weather Stations Pressure Air Temp Water Temp Dewpoint Dewpoint Depression Visibility Wind Speed Wind Dir Waves Ship Positions

MSC Ludovica

Last reported at 2017-Dec-10 17:12 UTC. Time now 2017-Dec-14 13:22 UTC.
Position N 10°22' W 075°47'.

Length 300 m; draft 10.2 m.

Type: Ship (hazmat cat A). MMSI: 351248000.

Date/timePositionNaut miles runAvg speedWind from/ knotsBaromVisibWave heightAir tempDewpointWater temp
2017-Dec-10 17:12N 10°22' W 075°47'314.4
2017-Dec-10 17:00N 10°19' W 075°44'714.6
2017-Dec-10 16:30N 10°19' W 075°37'5 9.7
2017-Dec-10 16:00N 10°20' W 075°32'3 6.3
2017-Dec-10 15:29N 10°23' W 075°31'0 0.1
2017-Dec-10 14:56N 10°23' W 075°31'0 0.0
2017-Dec-10 00:50N 10°23' W 075°31'0 0.0
2017-Dec-10 00:29N 10°23' W 075°31'1 1.6
2017-Dec-10 00:00N 10°22' W 075°31'3 7.0
2017-Dec-09 23:30N 10°19' W 075°33'4 8.6
2017-Dec-09 23:00N 10°19' W 075°38'3 6.7
2017-Dec-09 22:30N 10°19' W 075°41'611.7
2017-Dec-09 22:00N 10°22' W 075°46'5 2.0
2017-Dec-09 19:20N 10°26' W 075°50'0 0.2
2017-Dec-09 18:07N 10°26' W 075°50'7314.8
2017-Dec-09 13:12N 11°20' W 075°01'415.4
2017-Dec-09 12:59N 11°22' W 074°58'815.5
2017-Dec-09 12:29N 11°26' W 074°51'815.9
2017-Dec-09 12:00N 11°28' W 074°44'  
Track history (hours):
 
Tides and Currents Weather Stations Pressure Air Temp Water Temp Dewpoint Dewpoint Depression Visibility Wind Speed Wind Dir Waves Ship Positions

MSC Ludovica

Last reported at 2017-Dec-10 17:12 UTC. Time now 2017-Dec-14 13:22 UTC.
Position N 10°22' W 075°47'.

Length 300 m; draft 10.2 m.

Type: Ship (hazmat cat A). MMSI: 351248000.

Date/timePositionNaut miles runAvg speedWind from/ knotsBaromVisibWave heightAir tempDewpointWater temp
2017-Dec-10 17:12N 10°22' W 075°47'314.4
2017-Dec-10 17:00N 10°19' W 075°44'714.6
2017-Dec-10 16:30N 10°19' W 075°37'5 9.7
2017-Dec-10 16:00N 10°20' W 075°32'3 6.3
2017-Dec-10 15:29N 10°23' W 075°31'0 0.1
2017-Dec-10 14:56N 10°23' W 075°31'0 0.0
2017-Dec-10 00:50N 10°23' W 075°31'0 0.0
2017-Dec-10 00:29N 10°23' W 075°31'1 1.6
2017-Dec-10 00:00N 10°22' W 075°31'3 7.0
2017-Dec-09 23:30N 10°19' W 075°33'4 8.6
2017-Dec-09 23:00N 10°19' W 075°38'3 6.7
2017-Dec-09 22:30N 10°19' W 075°41'611.7
2017-Dec-09 22:00N 10°22' W 075°46'5 2.0
2017-Dec-09 19:20N 10°26' W 075°50'0 0.2
2017-Dec-09 18:07N 10°26' W 075°50'7314.8
2017-Dec-09 13:12N 11°20' W 075°01'415.4
2017-Dec-09 12:59N 11°22' W 074°58'815.5
2017-Dec-09 12:29N 11°26' W 074°51'815.9
2017-Dec-09 12:00N 11°28' W 074°44'  

Dump ship's entire track history